BIHN

Hornafjordur Airport

Hornafjordur, Iceland
TAF BIHN 211629Z 2117/2202 22018KT 9999 SCT030 TEMPO 2117/2202 5000 DZ OVC010
Issued Valid From Valid To
Jun-21 @ 16:29 UTC
(2 hours ago)
Jun-21 @ 17:00 UTC
(an hour ago)
Jun-22 @ 02:00 UTC
(in 8 hours)
Jun-21 @ 17:00 to Jun-22 @ 02:00
TAF BIHN 211629Z 2117/2202 22018KT 9999 SCT030
Wind Visibility Clouds
220° at 18 knots 10,000+ meters
  • Scattered at 3,000' AGL
Temporary Jun-21 @ 17:00 to Jun-22 @ 02:00
TEMPO 2117/2202 5000 DZ OVC010
Visibility Clouds Conditions
5,005 meters
  • Overcast at 1,000' AGL
  • Drizzle
TAF BIHN 211629Z 2117/2202 22018KT 9999 SCT030 TEMPO 2117/2202 5000 DZ OVC010
Issued Jun-21 @ 16:29 UTC
(2 hours ago)
Valid From Jun-21 @ 17:00 UTC
(an hour ago)
Valid To Jun-22 @ 02:00 UTC
(in 8 hours)
Jun-21 @ 17:00 - Jun-22 @ 02:00
Wind Visibility
220° at 18 knots 10,000+ meters
Clouds
  • Scattered at 3,000' AGL
Temporary Jun-21 @ 17:00 - Jun-22 @ 02:00
Clouds
  • Overcast at 1,000' AGL
Conditions
  • Drizzle